sensor_id;sensor_type;location;lat;lon;timestamp;P1;durP1;ratioP1;P2;durP2;ratioP2
46348;SDS011;32057;47.830;19.046;2023-02-08T00:01:47;4.85;;;4.38;;
46348;SDS011;32057;47.830;19.046;2023-02-08T00:04:13;15.57;;;6.28;;
46348;SDS011;32057;47.830;19.046;2023-02-08T00:06:38;11.55;;;5.65;;
46348;SDS011;32057;47.830;19.046;2023-02-08T00:09:04;4.90;;;3.38;;
46348;SDS011;32057;47.830;19.046;2023-02-08T00:11:31;7.55;;;4.25;;
46348;SDS011;32057;47.830;19.046;2023-02-08T00:13:56;6.78;;;4.05;;
46348;SDS011;32057;47.830;19.046;2023-02-08T00:16:22;7.25;;;4.80;;
46348;SDS011;32057;47.830;19.046;2023-02-08T00:18:47;7.90;;;4.65;;
46348;SDS011;32057;47.830;19.046;2023-02-08T00:21:14;8.98;;;4.82;;
46348;SDS011;32057;47.830;19.046;2023-02-08T00:23:40;6.30;;;3.97;;
46348;SDS011;32057;47.830;19.046;2023-02-08T00:26:06;6.15;;;3.60;;
46348;SDS011;32057;47.830;19.046;2023-02-08T00:28:32;7.57;;;4.82;;
46348;SDS011;32057;47.830;19.046;2023-02-08T00:30:58;18.98;;;5.07;;
46348;SDS011;32057;47.830;19.046;2023-02-08T00:33:23;12.93;;;4.57;;
46348;SDS011;32057;47.830;19.046;2023-02-08T00:35:48;11.18;;;5.40;;
46348;SDS011;32057;47.830;19.046;2023-02-08T00:38:14;5.32;;;4.28;;
46348;SDS011;32057;47.830;19.046;2023-02-08T00:40:39;8.25;;;5.53;;
46348;SDS011;32057;47.830;19.046;2023-02-08T00:43:05;7.80;;;5.93;;
46348;SDS011;32057;47.830;19.046;2023-02-08T00:45:31;9.07;;;5.70;;
46348;SDS011;32057;47.830;19.046;2023-02-08T00:47:57;9.43;;;5.53;;
46348;SDS011;32057;47.830;19.046;2023-02-08T00:50:23;13.50;;;6.20;;
46348;SDS011;32057;47.830;19.046;2023-02-08T00:52:48;11.52;;;5.90;;
46348;SDS011;32057;47.830;19.046;2023-02-08T00:55:13;9.30;;;4.88;;
46348;SDS011;32057;47.830;19.046;2023-02-08T00:57:39;10.65;;;5.40;;
46348;SDS011;32057;47.830;19.046;2023-02-08T01:00:05;10.18;;;4.63;;
46348;SDS011;32057;47.830;19.046;2023-02-08T01:02:31;15.13;;;6.97;;
46348;SDS011;32057;47.830;19.046;2023-02-08T01:04:57;11.18;;;4.90;;
46348;SDS011;32057;47.830;19.046;2023-02-08T01:07:22;5.68;;;4.47;;
46348;SDS011;32057;47.830;19.046;2023-02-08T01:09:48;13.70;;;6.25;;
46348;SDS011;32057;47.830;19.046;2023-02-08T01:12:13;9.02;;;5.53;;
46348;SDS011;32057;47.830;19.046;2023-02-08T01:14:39;9.35;;;4.90;;
46348;SDS011;32057;47.830;19.046;2023-02-08T01:17:05;10.02;;;6.63;;
46348;SDS011;32057;47.830;19.046;2023-02-08T01:19:31;9.23;;;6.95;;
46348;SDS011;32057;47.830;19.046;2023-02-08T01:21:57;7.32;;;5.25;;
46348;SDS011;32057;47.830;19.046;2023-02-08T01:24:23;6.93;;;5.97;;
46348;SDS011;32057;47.830;19.046;2023-02-08T01:26:48;9.90;;;4.57;;
46348;SDS011;32057;47.830;19.046;2023-02-08T01:29:13;9.73;;;5.85;;
46348;SDS011;32057;47.830;19.046;2023-02-08T01:31:40;11.80;;;6.32;;
46348;SDS011;32057;47.830;19.046;2023-02-08T01:34:07;7.43;;;4.75;;
46348;SDS011;32057;47.830;19.046;2023-02-08T01:36:33;17.38;;;6.47;;
46348;SDS011;32057;47.830;19.046;2023-02-08T01:38:59;6.20;;;5.32;;
46348;SDS011;32057;47.830;19.046;2023-02-08T01:41:27;4.22;;;3.88;;
46348;SDS011;32057;47.830;19.046;2023-02-08T01:51:56;13.43;;;6.18;;
46348;SDS011;32057;47.830;19.046;2023-02-08T01:54:26;10.40;;;4.78;;
46348;SDS011;32057;47.830;19.046;2023-02-08T01:56:56;12.80;;;5.55;;
46348;SDS011;32057;47.830;19.046;2023-02-08T01:59:22;14.73;;;4.40;;
46348;SDS011;32057;47.830;19.046;2023-02-08T02:01:53;7.88;;;3.30;;
46348;SDS011;32057;47.830;19.046;2023-02-08T02:04:21;7.93;;;5.35;;
46348;SDS011;32057;47.830;19.046;2023-02-08T02:06:48;4.68;;;4.07;;
46348;SDS011;32057;47.830;19.046;2023-02-08T02:11:45;8.98;;;2.83;;
46348;SDS011;32057;47.830;19.046;2023-02-08T02:14:11;5.85;;;3.25;;
46348;SDS011;32057;47.830;19.046;2023-02-08T02:16:36;2.17;;;2.00;;
46348;SDS011;32057;47.830;19.046;2023-02-08T02:19:03;5.93;;;3.08;;
46348;SDS011;32057;47.830;19.046;2023-02-08T02:21:37;5.50;;;3.00;;
46348;SDS011;32057;47.830;19.046;2023-02-08T02:43:31;7.10;;;2.40;;
46348;SDS011;32057;47.830;19.046;2023-02-08T02:49:16;3.65;;;2.72;;
46348;SDS011;32057;47.830;19.046;2023-02-08T02:51:49;5.38;;;2.58;;
46348;SDS011;32057;47.830;19.046;2023-02-08T02:54:22;5.10;;;2.05;;
46348;SDS011;32057;47.830;19.046;2023-02-08T02:56:56;4.65;;;2.50;;
46348;SDS011;32057;47.830;19.046;2023-02-08T02:59:25;4.53;;;3.42;;
46348;SDS011;32057;47.830;19.046;2023-02-08T03:01:52;4.78;;;1.83;;
46348;SDS011;32057;47.830;19.046;2023-02-08T03:18:13;2.92;;;2.13;;
46348;SDS011;32057;47.830;19.046;2023-02-08T03:23:45;6.18;;;2.25;;
46348;SDS011;32057;47.830;19.046;2023-02-08T03:26:16;3.30;;;2.67;;
46348;SDS011;32057;47.830;19.046;2023-02-08T03:28:53;6.55;;;2.63;;
46348;SDS011;32057;47.830;19.046;2023-02-08T03:34:05;4.13;;;2.20;;
46348;SDS011;32057;47.830;19.046;2023-02-08T03:38:57;6.05;;;3.35;;
46348;SDS011;32057;47.830;19.046;2023-02-08T03:41:28;7.82;;;3.45;;
46348;SDS011;32057;47.830;19.046;2023-02-08T03:44:05;2.30;;;1.88;;
46348;SDS011;32057;47.830;19.046;2023-02-08T03:46:52;7.38;;;2.55;;
46348;SDS011;32057;47.830;19.046;2023-02-08T03:49:24;8.60;;;2.80;;
46348;SDS011;32057;47.830;19.046;2023-02-08T03:51:55;7.70;;;3.17;;
46348;SDS011;32057;47.830;19.046;2023-02-08T03:54:24;2.38;;;1.80;;
46348;SDS011;32057;47.830;19.046;2023-02-08T03:59:57;6.07;;;4.50;;
46348;SDS011;32057;47.830;19.046;2023-02-08T04:02:27;6.28;;;2.55;;
46348;SDS011;32057;47.830;19.046;2023-02-08T04:04:55;3.60;;;2.35;;
46348;SDS011;32057;47.830;19.046;2023-02-08T04:07:22;8.27;;;2.97;;
46348;SDS011;32057;47.830;19.046;2023-02-08T04:09:48;2.83;;;2.45;;
46348;SDS011;32057;47.830;19.046;2023-02-08T04:12:13;2.90;;;2.47;;
46348;SDS011;32057;47.830;19.046;2023-02-08T04:14:39;3.42;;;1.92;;
46348;SDS011;32057;47.830;19.046;2023-02-08T04:17:04;3.38;;;3.10;;
46348;SDS011;32057;47.830;19.046;2023-02-08T04:19:30;2.75;;;2.28;;
46348;SDS011;32057;47.830;19.046;2023-02-08T04:21:55;7.03;;;2.30;;
46348;SDS011;32057;47.830;19.046;2023-02-08T04:24:21;3.10;;;1.85;;
46348;SDS011;32057;47.830;19.046;2023-02-08T04:26:46;3.22;;;2.35;;
46348;SDS011;32057;47.830;19.046;2023-02-08T04:29:12;1.50;;;1.40;;
46348;SDS011;32057;47.830;19.046;2023-02-08T04:31:37;3.70;;;1.73;;
46348;SDS011;32057;47.830;19.046;2023-02-08T04:34:03;1.73;;;1.63;;
46348;SDS011;32057;47.830;19.046;2023-02-08T04:36:28;3.08;;;2.45;;
46348;SDS011;32057;47.830;19.046;2023-02-08T04:38:54;2.88;;;2.47;;
46348;SDS011;32057;47.830;19.046;2023-02-08T04:41:19;1.63;;;1.52;;
46348;SDS011;32057;47.830;19.046;2023-02-08T04:43:44;17.20;;;4.35;;
46348;SDS011;32057;47.830;19.046;2023-02-08T04:46:10;6.35;;;4.55;;
46348;SDS011;32057;47.830;19.046;2023-02-08T04:48:36;5.00;;;3.13;;
46348;SDS011;32057;47.830;19.046;2023-02-08T04:51:01;5.20;;;2.20;;
46348;SDS011;32057;47.830;19.046;2023-02-08T04:53:27;8.13;;;4.25;;
46348;SDS011;32057;47.830;19.046;2023-02-08T04:55:52;9.05;;;3.17;;
46348;SDS011;32057;47.830;19.046;2023-02-08T04:58:17;4.82;;;3.42;;
46348;SDS011;32057;47.830;19.046;2023-02-08T05:00:43;5.00;;;2.60;;
46348;SDS011;32057;47.830;19.046;2023-02-08T05:03:09;3.65;;;3.28;;
46348;SDS011;32057;47.830;19.046;2023-02-08T05:05:34;5.97;;;2.65;;
46348;SDS011;32057;47.830;19.046;2023-02-08T05:08:01;2.55;;;2.25;;
46348;SDS011;32057;47.830;19.046;2023-02-08T05:10:27;10.20;;;4.03;;
46348;SDS011;32057;47.830;19.046;2023-02-08T05:12:52;8.88;;;2.28;;
46348;SDS011;32057;47.830;19.046;2023-02-08T05:15:18;3.33;;;3.03;;
46348;SDS011;32057;47.830;19.046;2023-02-08T05:17:43;5.05;;;2.47;;
46348;SDS011;32057;47.830;19.046;2023-02-08T05:20:09;6.75;;;4.50;;
46348;SDS011;32057;47.830;19.046;2023-02-08T05:22:35;11.57;;;5.50;;
46348;SDS011;32057;47.830;19.046;2023-02-08T05:25:01;8.10;;;4.28;;
46348;SDS011;32057;47.830;19.046;2023-02-08T05:27:27;10.02;;;5.72;;
46348;SDS011;32057;47.830;19.046;2023-02-08T05:29:52;5.80;;;5.15;;
46348;SDS011;32057;47.830;19.046;2023-02-08T05:32:18;6.07;;;4.63;;
46348;SDS011;32057;47.830;19.046;2023-02-08T05:34:43;5.68;;;5.15;;
46348;SDS011;32057;47.830;19.046;2023-02-08T05:37:09;9.18;;;3.70;;
46348;SDS011;32057;47.830;19.046;2023-02-08T05:39:34;8.77;;;5.13;;
46348;SDS011;32057;47.830;19.046;2023-02-08T05:41:59;6.63;;;2.88;;
46348;SDS011;32057;47.830;19.046;2023-02-08T05:44:25;6.72;;;3.10;;
46348;SDS011;32057;47.830;19.046;2023-02-08T05:46:50;8.63;;;4.30;;
46348;SDS011;32057;47.830;19.046;2023-02-08T05:49:16;9.27;;;3.33;;
46348;SDS011;32057;47.830;19.046;2023-02-08T05:51:41;4.30;;;3.78;;
46348;SDS011;32057;47.830;19.046;2023-02-08T05:54:06;2.13;;;1.95;;
46348;SDS011;32057;47.830;19.046;2023-02-08T05:56:32;3.72;;;3.10;;
46348;SDS011;32057;47.830;19.046;2023-02-08T05:59:01;5.50;;;2.53;;
46348;SDS011;32057;47.830;19.046;2023-02-08T06:01:26;4.53;;;2.55;;
46348;SDS011;32057;47.830;19.046;2023-02-08T06:03:52;4.15;;;2.33;;
46348;SDS011;32057;47.830;19.046;2023-02-08T06:06:18;1.88;;;1.77;;
46348;SDS011;32057;47.830;19.046;2023-02-08T06:08:47;4.95;;;1.73;;
46348;SDS011;32057;47.830;19.046;2023-02-08T06:11:12;1.83;;;1.73;;
46348;SDS011;32057;47.830;19.046;2023-02-08T06:13:37;3.05;;;2.20;;
46348;SDS011;32057;47.830;19.046;2023-02-08T06:16:03;5.75;;;4.45;;
46348;SDS011;32057;47.830;19.046;2023-02-08T06:18:29;6.18;;;2.17;;
46348;SDS011;32057;47.830;19.046;2023-02-08T06:20:55;2.85;;;2.15;;
46348;SDS011;32057;47.830;19.046;2023-02-08T06:23:21;1.90;;;1.27;;
46348;SDS011;32057;47.830;19.046;2023-02-08T06:25:47;4.22;;;2.80;;
46348;SDS011;32057;47.830;19.046;2023-02-08T06:28:12;2.22;;;2.03;;
46348;SDS011;32057;47.830;19.046;2023-02-08T06:30:38;3.72;;;2.10;;
46348;SDS011;32057;47.830;19.046;2023-02-08T06:33:03;3.85;;;2.78;;
46348;SDS011;32057;47.830;19.046;2023-02-08T06:35:29;1.85;;;1.67;;
46348;SDS011;32057;47.830;19.046;2023-02-08T06:37:55;6.18;;;3.15;;
46348;SDS011;32057;47.830;19.046;2023-02-08T06:40:20;6.40;;;3.40;;
46348;SDS011;32057;47.830;19.046;2023-02-08T06:42:46;5.85;;;5.18;;
46348;SDS011;32057;47.830;19.046;2023-02-08T06:45:12;6.25;;;4.18;;
46348;SDS011;32057;47.830;19.046;2023-02-08T06:47:38;3.15;;;2.85;;
46348;SDS011;32057;47.830;19.046;2023-02-08T06:50:03;4.05;;;3.75;;
46348;SDS011;32057;47.830;19.046;2023-02-08T06:52:29;5.03;;;3.70;;
46348;SDS011;32057;47.830;19.046;2023-02-08T06:54:54;4.93;;;3.20;;
46348;SDS011;32057;47.830;19.046;2023-02-08T06:57:20;2.30;;;2.10;;
46348;SDS011;32057;47.830;19.046;2023-02-08T06:59:45;3.10;;;2.45;;
46348;SDS011;32057;47.830;19.046;2023-02-08T07:02:12;4.47;;;1.35;;
46348;SDS011;32057;47.830;19.046;2023-02-08T07:04:38;2.28;;;2.10;;
46348;SDS011;32057;47.830;19.046;2023-02-08T07:07:04;2.38;;;1.48;;
46348;SDS011;32057;47.830;19.046;2023-02-08T07:09:31;2.08;;;1.88;;
46348;SDS011;32057;47.830;19.046;2023-02-08T07:11:58;3.63;;;1.52;;
46348;SDS011;32057;47.830;19.046;2023-02-08T07:14:23;3.72;;;1.55;;
46348;SDS011;32057;47.830;19.046;2023-02-08T07:16:48;3.13;;;2.03;;
46348;SDS011;32057;47.830;19.046;2023-02-08T07:19:14;3.25;;;2.60;;
46348;SDS011;32057;47.830;19.046;2023-02-08T07:21:39;6.63;;;2.78;;
46348;SDS011;32057;47.830;19.046;2023-02-08T07:24:05;2.08;;;0.98;;
46348;SDS011;32057;47.830;19.046;2023-02-08T07:26:30;6.82;;;2.85;;
46348;SDS011;32057;47.830;19.046;2023-02-08T07:28:56;4.35;;;2.45;;
46348;SDS011;32057;47.830;19.046;2023-02-08T07:31:22;6.95;;;2.83;;
46348;SDS011;32057;47.830;19.046;2023-02-08T07:33:48;4.78;;;3.08;;
46348;SDS011;32057;47.830;19.046;2023-02-08T07:36:14;2.15;;;2.05;;
46348;SDS011;32057;47.830;19.046;2023-02-08T07:38:39;4.50;;;3.60;;
46348;SDS011;32057;47.830;19.046;2023-02-08T07:41:05;9.00;;;4.60;;
46348;SDS011;32057;47.830;19.046;2023-02-08T07:43:33;5.32;;;4.40;;
46348;SDS011;32057;47.830;19.046;2023-02-08T07:46:04;6.95;;;3.95;;
46348;SDS011;32057;47.830;19.046;2023-02-08T07:48:30;4.90;;;1.48;;
46348;SDS011;32057;47.830;19.046;2023-02-08T07:50:56;3.38;;;2.53;;
46348;SDS011;32057;47.830;19.046;2023-02-08T07:53:21;3.65;;;2.00;;
46348;SDS011;32057;47.830;19.046;2023-02-08T07:55:47;4.75;;;2.97;;
46348;SDS011;32057;47.830;19.046;2023-02-08T07:58:12;2.67;;;2.47;;
46348;SDS011;32057;47.830;19.046;2023-02-08T08:00:38;2.60;;;2.40;;
46348;SDS011;32057;47.830;19.046;2023-02-08T08:03:04;3.25;;;1.85;;
46348;SDS011;32057;47.830;19.046;2023-02-08T08:05:29;1.35;;;1.05;;
46348;SDS011;32057;47.830;19.046;2023-02-08T08:07:55;4.35;;;2.15;;
46348;SDS011;32057;47.830;19.046;2023-02-08T08:10:20;4.88;;;2.33;;
46348;SDS011;32057;47.830;19.046;2023-02-08T08:12:46;3.65;;;1.77;;
46348;SDS011;32057;47.830;19.046;2023-02-08T08:15:11;2.42;;;2.00;;
46348;SDS011;32057;47.830;19.046;2023-02-08T08:17:36;3.50;;;1.75;;
46348;SDS011;32057;47.830;19.046;2023-02-08T08:20:06;3.72;;;2.30;;
46348;SDS011;32057;47.830;19.046;2023-02-08T08:22:33;2.78;;;2.28;;
46348;SDS011;32057;47.830;19.046;2023-02-08T08:24:58;5.82;;;3.75;;
46348;SDS011;32057;47.830;19.046;2023-02-08T08:27:24;3.47;;;1.92;;
46348;SDS011;32057;47.830;19.046;2023-02-08T08:29:49;3.70;;;2.00;;
46348;SDS011;32057;47.830;19.046;2023-02-08T08:32:15;3.90;;;2.20;;
46348;SDS011;32057;47.830;19.046;2023-02-08T08:34:40;3.40;;;2.55;;
46348;SDS011;32057;47.830;19.046;2023-02-08T08:37:06;2.83;;;2.13;;
46348;SDS011;32057;47.830;19.046;2023-02-08T08:39:31;3.05;;;1.85;;
46348;SDS011;32057;47.830;19.046;2023-02-08T08:41:57;3.65;;;1.92;;
46348;SDS011;32057;47.830;19.046;2023-02-08T08:44:23;6.18;;;3.20;;
46348;SDS011;32057;47.830;19.046;2023-02-08T08:46:49;5.85;;;2.90;;
46348;SDS011;32057;47.830;19.046;2023-02-08T08:49:15;4.00;;;1.75;;
46348;SDS011;32057;47.830;19.046;2023-02-08T08:51:40;2.92;;;1.98;;
46348;SDS011;32057;47.830;19.046;2023-02-08T08:54:05;3.55;;;2.25;;
46348;SDS011;32057;47.830;19.046;2023-02-08T08:56:31;5.45;;;2.17;;
46348;SDS011;32057;47.830;19.046;2023-02-08T08:58:57;4.72;;;3.22;;
46348;SDS011;32057;47.830;19.046;2023-02-08T09:01:23;3.92;;;2.15;;
46348;SDS011;32057;47.830;19.046;2023-02-08T09:03:48;7.57;;;4.00;;
46348;SDS011;32057;47.830;19.046;2023-02-08T09:06:14;2.97;;;2.70;;
46348;SDS011;32057;47.830;19.046;2023-02-08T09:08:39;4.60;;;2.47;;
46348;SDS011;32057;47.830;19.046;2023-02-08T09:11:06;2.80;;;1.77;;
46348;SDS011;32057;47.830;19.046;2023-02-08T09:13:32;1.75;;;1.60;;
46348;SDS011;32057;47.830;19.046;2023-02-08T09:15:58;5.18;;;2.92;;
46348;SDS011;32057;47.830;19.046;2023-02-08T09:18:23;2.90;;;2.35;;
46348;SDS011;32057;47.830;19.046;2023-02-08T09:20:49;5.63;;;2.38;;
46348;SDS011;32057;47.830;19.046;2023-02-08T09:23:14;4.13;;;1.95;;
46348;SDS011;32057;47.830;19.046;2023-02-08T09:25:39;2.65;;;2.05;;
46348;SDS011;32057;47.830;19.046;2023-02-08T09:28:05;4.40;;;2.50;;
46348;SDS011;32057;47.830;19.046;2023-02-08T09:30:31;3.30;;;2.50;;
46348;SDS011;32057;47.830;19.046;2023-02-08T09:32:57;4.43;;;2.22;;
46348;SDS011;32057;47.830;19.046;2023-02-08T09:35:22;3.75;;;2.58;;
46348;SDS011;32057;47.830;19.046;2023-02-08T09:37:47;10.23;;;3.05;;
46348;SDS011;32057;47.830;19.046;2023-02-08T09:40:23;2.28;;;2.08;;
46348;SDS011;32057;47.830;19.046;2023-02-08T09:42:56;10.20;;;2.72;;
46348;SDS011;32057;47.830;19.046;2023-02-08T09:45:50;3.67;;;3.38;;
46348;SDS011;32057;47.830;19.046;2023-02-08T09:48:25;6.78;;;3.10;;
46348;SDS011;32057;47.830;19.046;2023-02-08T09:50:57;5.57;;;3.22;;
46348;SDS011;32057;47.830;19.046;2023-02-08T09:53:33;5.28;;;2.42;;
46348;SDS011;32057;47.830;19.046;2023-02-08T09:56:04;5.63;;;3.30;;
46348;SDS011;32057;47.830;19.046;2023-02-08T10:01:25;3.65;;;2.80;;
46348;SDS011;32057;47.830;19.046;2023-02-08T10:03:52;3.03;;;2.10;;
46348;SDS011;32057;47.830;19.046;2023-02-08T10:06:23;6.78;;;2.42;;
46348;SDS011;32057;47.830;19.046;2023-02-08T10:08:49;4.47;;;2.67;;
46348;SDS011;32057;47.830;19.046;2023-02-08T10:11:33;6.18;;;3.33;;
46348;SDS011;32057;47.830;19.046;2023-02-08T10:37:12;3.80;;;2.85;;
46348;SDS011;32057;47.830;19.046;2023-02-08T10:39:41;2.25;;;2.05;;
46348;SDS011;32057;47.830;19.046;2023-02-08T10:42:11;6.93;;;3.13;;
46348;SDS011;32057;47.830;19.046;2023-02-08T10:44:47;4.00;;;3.28;;
46348;SDS011;32057;47.830;19.046;2023-02-08T10:47:41;11.27;;;3.65;;
46348;SDS011;32057;47.830;19.046;2023-02-08T10:50:26;5.53;;;2.58;;
46348;SDS011;32057;47.830;19.046;2023-02-08T10:52:59;7.28;;;3.20;;
46348;SDS011;32057;47.830;19.046;2023-02-08T10:55:25;3.47;;;2.25;;
46348;SDS011;32057;47.830;19.046;2023-02-08T10:57:51;2.95;;;2.15;;
46348;SDS011;32057;47.830;19.046;2023-02-08T11:00:40;3.38;;;2.42;;
46348;SDS011;32057;47.830;19.046;2023-02-08T11:03:12;4.38;;;2.53;;
46348;SDS011;32057;47.830;19.046;2023-02-08T11:05:41;3.15;;;1.65;;
46348;SDS011;32057;47.830;19.046;2023-02-08T11:08:08;4.45;;;2.83;;
46348;SDS011;32057;47.830;19.046;2023-02-08T11:10:36;1.65;;;1.55;;
46348;SDS011;32057;47.830;19.046;2023-02-08T11:18:20;3.25;;;1.27;;
46348;SDS011;32057;47.830;19.046;2023-02-08T11:20:52;2.83;;;2.05;;
46348;SDS011;32057;47.830;19.046;2023-02-08T11:23:22;2.70;;;1.52;;
46348;SDS011;32057;47.830;19.046;2023-02-08T11:25:50;1.85;;;1.35;;
46348;SDS011;32057;47.830;19.046;2023-02-08T11:28:24;3.67;;;1.80;;
46348;SDS011;32057;47.830;19.046;2023-02-08T11:30:59;2.83;;;2.03;;
46348;SDS011;32057;47.830;19.046;2023-02-08T11:33:26;2.78;;;1.77;;
46348;SDS011;32057;47.830;19.046;2023-02-08T11:35:54;2.83;;;2.17;;
46348;SDS011;32057;47.830;19.046;2023-02-08T11:38:28;3.25;;;2.05;;
46348;SDS011;32057;47.830;19.046;2023-02-08T11:40:56;2.63;;;1.98;;
46348;SDS011;32057;47.830;19.046;2023-02-08T11:43:25;6.03;;;2.58;;
46348;SDS011;32057;47.830;19.046;2023-02-08T11:45:54;2.92;;;1.63;;
46348;SDS011;32057;47.830;19.046;2023-02-08T11:48:22;1.90;;;1.38;;
46348;SDS011;32057;47.830;19.046;2023-02-08T11:51:08;1.95;;;1.77;;
46348;SDS011;32057;47.830;19.046;2023-02-08T11:53:38;3.35;;;2.03;;
46348;SDS011;32057;47.830;19.046;2023-02-08T11:56:16;2.83;;;1.55;;
46348;SDS011;32057;47.830;19.046;2023-02-08T11:58:54;4.00;;;2.22;;
46348;SDS011;32057;47.830;19.046;2023-02-08T12:01:34;1.67;;;1.33;;
46348;SDS011;32057;47.830;19.046;2023-02-08T12:04:01;4.18;;;2.33;;
46348;SDS011;32057;47.830;19.046;2023-02-08T12:11:42;2.78;;;1.45;;
46348;SDS011;32057;47.830;19.046;2023-02-08T12:22:41;2.45;;;1.70;;
46348;SDS011;32057;47.830;19.046;2023-02-08T12:28:09;2.30;;;1.08;;
46348;SDS011;32057;47.830;19.046;2023-02-08T12:30:55;2.15;;;1.10;;
46348;SDS011;32057;47.830;19.046;2023-02-08T12:33:42;3.30;;;1.77;;
46348;SDS011;32057;47.830;19.046;2023-02-08T12:40:01;3.53;;;1.63;;
46348;SDS011;32057;47.830;19.046;2023-02-08T12:53:59;1.58;;;1.13;;
46348;SDS011;32057;47.830;19.046;2023-02-08T12:56:35;1.77;;;1.40;;
46348;SDS011;32057;47.830;19.046;2023-02-08T12:59:04;1.55;;;1.40;;
46348;SDS011;32057;47.830;19.046;2023-02-08T13:01:39;2.30;;;1.65;;
46348;SDS011;32057;47.830;19.046;2023-02-08T13:06:50;2.05;;;1.85;;
46348;SDS011;32057;47.830;19.046;2023-02-08T13:12:03;2.08;;;1.40;;
46348;SDS011;32057;47.830;19.046;2023-02-08T13:17:52;3.67;;;2.53;;
46348;SDS011;32057;47.830;19.046;2023-02-08T13:22:50;2.40;;;1.65;;
46348;SDS011;32057;47.830;19.046;2023-02-08T13:25:24;3.83;;;1.70;;
46348;SDS011;32057;47.830;19.046;2023-02-08T13:27:54;2.60;;;2.00;;
46348;SDS011;32057;47.830;19.046;2023-02-08T13:30:20;2.38;;;2.15;;
46348;SDS011;32057;47.830;19.046;2023-02-08T13:32:47;4.10;;;2.00;;
46348;SDS011;32057;47.830;19.046;2023-02-08T13:35:15;2.60;;;2.08;;
46348;SDS011;32057;47.830;19.046;2023-02-08T13:37:51;3.30;;;1.40;;
46348;SDS011;32057;47.830;19.046;2023-02-08T13:40:28;2.08;;;1.80;;
46348;SDS011;32057;47.830;19.046;2023-02-08T13:43:01;3.00;;;2.22;;
46348;SDS011;32057;47.830;19.046;2023-02-08T13:45:32;4.30;;;2.00;;
46348;SDS011;32057;47.830;19.046;2023-02-08T13:48:05;2.80;;;2.10;;
46348;SDS011;32057;47.830;19.046;2023-02-08T13:50:48;4.38;;;3.00;;
46348;SDS011;32057;47.830;19.046;2023-02-08T13:53:16;2.47;;;1.75;;
46348;SDS011;32057;47.830;19.046;2023-02-08T13:56:00;4.75;;;2.55;;
46348;SDS011;32057;47.830;19.046;2023-02-08T14:01:01;1.75;;;1.60;;
46348;SDS011;32057;47.830;19.046;2023-02-08T14:03:33;2.90;;;2.63;;
46348;SDS011;32057;47.830;19.046;2023-02-08T14:05:59;1.48;;;1.33;;
46348;SDS011;32057;47.830;19.046;2023-02-08T14:13:30;3.28;;;1.98;;
46348;SDS011;32057;47.830;19.046;2023-02-08T14:18:53;2.35;;;2.17;;
46348;SDS011;32057;47.830;19.046;2023-02-08T14:21:34;2.03;;;1.60;;
46348;SDS011;32057;47.830;19.046;2023-02-08T14:24:06;2.05;;;1.88;;
46348;SDS011;32057;47.830;19.046;2023-02-08T14:26:44;4.40;;;2.53;;
46348;SDS011;32057;47.830;19.046;2023-02-08T14:29:15;2.38;;;1.73;;
46348;SDS011;32057;47.830;19.046;2023-02-08T14:31:47;5.57;;;2.22;;
46348;SDS011;32057;47.830;19.046;2023-02-08T14:34:21;3.22;;;1.92;;
46348;SDS011;32057;47.830;19.046;2023-02-08T14:37:05;10.63;;;2.53;;
46348;SDS011;32057;47.830;19.046;2023-02-08T14:45:44;4.03;;;2.38;;
46348;SDS011;32057;47.830;19.046;2023-02-08T14:53:36;4.60;;;2.22;;
46348;SDS011;32057;47.830;19.046;2023-02-08T14:56:15;2.65;;;1.67;;
46348;SDS011;32057;47.830;19.046;2023-02-08T14:58:49;5.40;;;2.85;;
46348;SDS011;32057;47.830;19.046;2023-02-08T15:01:21;6.45;;;1.75;;
46348;SDS011;32057;47.830;19.046;2023-02-08T15:03:57;4.28;;;2.42;;
46348;SDS011;32057;47.830;19.046;2023-02-08T15:08:59;2.40;;;1.88;;
46348;SDS011;32057;47.830;19.046;2023-02-08T15:11:26;2.58;;;1.67;;
46348;SDS011;32057;47.830;19.046;2023-02-08T15:13:55;2.75;;;2.17;;
46348;SDS011;32057;47.830;19.046;2023-02-08T15:16:23;4.57;;;1.83;;
46348;SDS011;32057;47.830;19.046;2023-02-08T15:18:58;4.35;;;1.92;;
46348;SDS011;32057;47.830;19.046;2023-02-08T15:21:26;7.10;;;3.67;;
46348;SDS011;32057;47.830;19.046;2023-02-08T15:24:12;2.60;;;1.98;;
46348;SDS011;32057;47.830;19.046;2023-02-08T15:26:44;3.60;;;1.95;;
46348;SDS011;32057;47.830;19.046;2023-02-08T15:29:38;6.10;;;2.80;;
46348;SDS011;32057;47.830;19.046;2023-02-08T15:32:04;5.83;;;2.70;;
46348;SDS011;32057;47.830;19.046;2023-02-08T15:34:40;3.42;;;2.50;;
46348;SDS011;32057;47.830;19.046;2023-02-08T15:37:11;2.65;;;1.75;;
46348;SDS011;32057;47.830;19.046;2023-02-08T15:39:41;4.00;;;2.47;;
46348;SDS011;32057;47.830;19.046;2023-02-08T15:42:15;5.13;;;2.50;;
46348;SDS011;32057;47.830;19.046;2023-02-08T15:44:42;4.60;;;2.10;;
46348;SDS011;32057;47.830;19.046;2023-02-08T15:47:10;3.08;;;2.33;;
46348;SDS011;32057;47.830;19.046;2023-02-08T15:49:42;3.60;;;2.15;;
46348;SDS011;32057;47.830;19.046;2023-02-08T15:52:16;3.58;;;2.25;;
46348;SDS011;32057;47.830;19.046;2023-02-08T15:54:51;4.18;;;2.03;;
46348;SDS011;32057;47.830;19.046;2023-02-08T15:59:45;4.93;;;2.70;;
46348;SDS011;32057;47.830;19.046;2023-02-08T16:02:28;4.07;;;2.20;;
46348;SDS011;32057;47.830;19.046;2023-02-08T16:04:56;2.08;;;1.88;;
46348;SDS011;32057;47.830;19.046;2023-02-08T16:07:25;2.55;;;1.40;;
46348;SDS011;32057;47.830;19.046;2023-02-08T16:09:53;3.47;;;2.40;;
46348;SDS011;32057;47.830;19.046;2023-02-08T16:12:21;6.32;;;3.00;;
46348;SDS011;32057;47.830;19.046;2023-02-08T16:14:48;4.50;;;2.45;;
46348;SDS011;32057;47.830;19.046;2023-02-08T16:20:22;5.70;;;2.65;;
46348;SDS011;32057;47.830;19.046;2023-02-08T16:22:53;3.13;;;1.63;;
46348;SDS011;32057;47.830;19.046;2023-02-08T16:25:34;4.75;;;2.58;;
46348;SDS011;32057;47.830;19.046;2023-02-08T16:28:29;4.05;;;2.95;;
46348;SDS011;32057;47.830;19.046;2023-02-08T16:30:56;4.82;;;2.47;;
46348;SDS011;32057;47.830;19.046;2023-02-08T16:33:24;2.25;;;2.05;;
46348;SDS011;32057;47.830;19.046;2023-02-08T16:35:51;7.13;;;2.95;;
46348;SDS011;32057;47.830;19.046;2023-02-08T16:38:18;2.58;;;2.33;;
46348;SDS011;32057;47.830;19.046;2023-02-08T16:40:47;3.88;;;2.33;;
46348;SDS011;32057;47.830;19.046;2023-02-08T16:43:36;4.20;;;2.22;;
46348;SDS011;32057;47.830;19.046;2023-02-08T16:48:33;4.50;;;2.70;;
46348;SDS011;32057;47.830;19.046;2023-02-08T16:51:01;5.85;;;2.97;;
46348;SDS011;32057;47.830;19.046;2023-02-08T16:53:29;6.97;;;3.67;;
46348;SDS011;32057;47.830;19.046;2023-02-08T16:55:56;5.28;;;2.67;;
46348;SDS011;32057;47.830;19.046;2023-02-08T16:58:22;5.60;;;2.70;;
46348;SDS011;32057;47.830;19.046;2023-02-08T17:00:47;3.38;;;2.50;;
46348;SDS011;32057;47.830;19.046;2023-02-08T17:03:13;4.57;;;2.15;;
46348;SDS011;32057;47.830;19.046;2023-02-08T17:05:38;8.98;;;2.42;;
46348;SDS011;32057;47.830;19.046;2023-02-08T17:08:05;1.33;;;1.23;;
46348;SDS011;32057;47.830;19.046;2023-02-08T17:10:33;4.32;;;2.65;;
46348;SDS011;32057;47.830;19.046;2023-02-08T17:13:00;2.47;;;2.03;;
46348;SDS011;32057;47.830;19.046;2023-02-08T17:15:26;3.30;;;1.85;;
46348;SDS011;32057;47.830;19.046;2023-02-08T17:17:52;3.50;;;2.75;;
46348;SDS011;32057;47.830;19.046;2023-02-08T17:20:28;4.03;;;2.35;;
46348;SDS011;32057;47.830;19.046;2023-02-08T17:22:56;2.10;;;2.00;;
46348;SDS011;32057;47.830;19.046;2023-02-08T17:25:26;7.53;;;2.38;;
46348;SDS011;32057;47.830;19.046;2023-02-08T17:27:55;2.80;;;1.98;;